Etusivu
METAR-TAF:

METAR-TAF

Lentoasemat :

Ouagadougoun kansainvälinen lentoasema

Ouagadougou, Burkina Faso

Leveyspiiri: 12-21N, Pituuspiiri: 001-31W, korkeus merenpinnasta: 316 m

Tämänhetkinen sää

Tämä raportti tehtiin 59 minuuttia sitten, kello 04.00 UTC
Tuuli 2 kn idästä/koillisesta
Lämpötila 22°C
Kosteus 38%
Ilmanpaine 1015 hPa
Näkyvyys 10 km tai enemmän
ei pilviä alle 1500 m:ssä eikä cumulonimbus-pilviä

METAR: DFFD 130400Z 06002KT CAVOK 22/07 Q1015 NOSIG

Aika: 04:59 (04:59 UTC)

Sääennuste

Tämä raportti tehtiin 5 tuntia ja 59 minuuttia sitten, kello 23.00 UTC
Ennuste voimassa 13. päivästä klo 00 UTC - 14. päivään klo 06 UTC
Tuuli 8 kn koillisesta
Näkyvyys: 8000 m
Ajoittain
13. päivästä klo 06 UTC - 13. päivään klo 10 UTC
Näkyvyys: 3500 m
usvaa
Ajoittain
13. päivästä klo 17 UTC - 13. päivään klo 20 UTC
Näkyvyys: 4000 m
usvaa

TAF: DFFD 122300Z 1300/1406 04008KT 8000 NSC TEMPO 1306/1310 3500 HZ TEMPO 1317/1320 4000 HZ

Säähavainnot ja -ennusteet yli 4000 lentoasemalta (METAR- ja TAF-raportit).

Käytössä olevat sääasemat on merkitty karttaan keltaisilla ja punaisilla pisteillä.

Aseta hiiri pisteen päälle nähdäksesi sääaseman nimen.

Klikkaa sitten nähdäksesi säähavainnot ja -ennusteet.

Kartan vaihtaminen: klikkaa mustalla rastilla varustettuja vihreitä pisteitä, niin voit zoomata sisään; viivalla varustettua vihreää pistettä, niin voit zoomata ulos tai vihreitä nuolia, niin pääset viereisille kartoille.


METAR-TAF: